createdAt,value
2017-04-18T02:22:28.772Z,90.48
2017-04-18T02:23:09.280Z,90.3
2017-04-18T02:23:49.808Z,90.77
2017-04-18T02:24:30.429Z,90.39
2017-04-18T02:25:11.031Z,90.67
2017-04-18T02:25:52.647Z,90.48
2017-04-18T02:26:33.158Z,90.3
2017-04-18T02:27:13.756Z,90.58
2017-04-18T02:27:54.361Z,90.48
2017-04-18T02:28:34.945Z,90.77
2017-04-18T02:29:15.494Z,90.77
2017-04-18T02:29:56.063Z,90.86
2017-04-18T02:30:36.667Z,90.2
2017-04-18T02:31:17.216Z,90.86
2017-04-18T02:31:57.868Z,90.48
2017-04-18T02:32:38.520Z,90.86
2017-04-18T02:33:19.153Z,90.77
2017-04-18T02:33:59.725Z,90.86
2017-04-18T02:34:40.273Z,90.77
2017-04-18T02:35:20.837Z,90.86
2017-04-18T02:36:01.456Z,90.67
2017-04-18T02:36:42.038Z,90.77
2017-04-18T02:37:22.685Z,90.77
2017-04-18T02:38:03.305Z,90.96
2017-04-18T02:38:43.881Z,90.39
2017-04-18T02:39:24.436Z,90.77
2017-04-18T02:40:05.086Z,90.72
2017-04-18T02:40:45.633Z,90.77
2017-04-18T02:41:26.224Z,90.53
2017-04-18T02:42:06.840Z,90.72
2017-04-18T02:42:48.019Z,89.97
2017-04-18T02:43:28.538Z,90.44
2017-04-18T02:44:09.094Z,90.63
2017-04-18T02:44:49.644Z,89.97
2017-04-18T02:45:30.204Z,90.44
2017-04-18T02:46:10.732Z,90.25
2017-04-18T02:46:51.386Z,90.34
2017-04-18T02:47:31.999Z,90.44
2017-04-18T02:48:12.520Z,90.34
2017-04-18T02:48:53.131Z,90.63
2017-04-18T02:49:33.743Z,90.91
2017-04-18T02:50:14.283Z,90.82
2017-04-18T02:50:54.859Z,90.63
2017-04-18T02:51:35.440Z,90.63
2017-04-18T02:52:16.086Z,90.63
2017-04-18T02:52:56.645Z,90.63
2017-04-18T02:53:37.282Z,90.53
2017-04-18T02:54:17.820Z,90.53
2017-04-18T02:54:58.389Z,90.63
2017-04-18T02:55:38.933Z,90.63
2017-04-18T02:56:19.481Z,90.63
2017-04-18T02:57:00.032Z,90.72
2017-04-18T02:57:40.680Z,90.44
2017-04-18T02:58:21.245Z,90.72
2017-04-18T02:59:02.086Z,90.72
2017-04-18T02:59:42.618Z,90.53
2017-04-18T03:00:23.240Z,90.63
2017-04-18T03:01:03.856Z,90.63
2017-04-18T03:01:44.437Z,90.72
2017-04-18T03:02:25.088Z,90.63
2017-04-18T03:03:05.679Z,90.53
2017-04-18T03:03:46.588Z,90.44
2017-04-18T03:04:27.564Z,90.44
2017-04-18T03:05:08.182Z,90.63
2017-04-18T03:05:48.722Z,90.63
2017-04-18T03:06:29.312Z,90.63
2017-04-18T03:07:09.911Z,91.01
2017-04-18T03:07:50.419Z,90.72
2017-04-18T03:08:31.923Z,90.72
2017-04-18T03:09:12.540Z,90.72
2017-04-18T03:09:53.128Z,90.63
2017-04-18T03:10:33.657Z,90.63
2017-04-18T03:11:14.246Z,90.63
2017-04-18T03:11:54.770Z,90.63
2017-04-18T03:12:35.393Z,91.01
2017-04-18T03:13:15.910Z,90.63
2017-04-18T03:13:56.817Z,90.25
2017-04-18T03:14:37.408Z,90.34
2017-04-18T03:15:17.920Z,90.44
2017-04-18T03:15:58.500Z,90.34
2017-04-18T03:16:39.010Z,90.63
2017-04-18T03:17:19.619Z,90.63
2017-04-18T03:18:00.142Z,90.44
2017-04-18T03:18:40.714Z,90.82
2017-04-18T03:19:21.280Z,90.91
2017-04-18T03:20:01.862Z,90.63
2017-04-18T03:20:42.408Z,90.44
2017-04-18T03:21:22.962Z,90.72
2017-04-18T03:22:03.529Z,90.82
2017-04-18T03:22:44.108Z,90.77
2017-04-18T03:23:25.082Z,90.72
2017-04-18T03:24:05.624Z,91.1
2017-04-18T03:24:46.172Z,90.72
2017-04-18T03:25:26.726Z,91.1
2017-04-18T03:26:07.364Z,91.1
2017-04-18T03:26:47.949Z,90.53
2017-04-18T03:27:28.531Z,91.1
2017-04-18T03:28:09.132Z,91.2
2017-04-18T03:28:49.653Z,90.72
2017-04-18T03:29:30.255Z,90.53
2017-04-18T03:30:10.842Z,90.91
2017-04-18T03:30:51.428Z,90.82
2017-04-18T03:31:31.959Z,90.63
2017-04-18T03:32:12.559Z,90.53
2017-04-18T03:32:53.149Z,90.53
2017-04-18T03:33:33.739Z,90.53
2017-04-18T03:34:14.269Z,90.25
2017-04-18T03:34:54.856Z,90.44
2017-04-18T03:35:35.471Z,90.16
2017-04-18T03:36:16.043Z,90.53
2017-04-18T03:36:56.648Z,90.34
2017-04-18T03:37:37.269Z,90.34
2017-04-18T03:38:17.810Z,90.44
2017-04-18T03:38:58.381Z,90.44
2017-04-18T03:39:38.930Z,90.34
2017-04-18T03:40:19.470Z,90.34
2017-04-18T03:41:00.026Z,90.34
2017-04-18T03:41:40.548Z,90.44
2017-04-18T03:42:21.074Z,90.25
2017-04-18T03:43:01.665Z,90.44
2017-04-18T03:43:42.249Z,90.63
2017-04-18T03:44:22.771Z,90.63
2017-04-18T03:45:04.341Z,90.63
2017-04-18T03:45:44.876Z,90.53
2017-04-18T03:46:25.393Z,90.53
2017-04-18T03:47:06.011Z,90.16
2017-04-18T03:47:46.633Z,90.25
2017-04-18T03:48:27.155Z,90.16
2017-04-18T03:49:07.739Z,90.16
2017-04-18T03:49:48.284Z,90.44
2017-04-18T03:50:28.807Z,89.97
2017-04-18T03:51:09.411Z,89.97
2017-04-18T03:51:49.971Z,90.34
2017-04-18T03:52:30.618Z,90.06
2017-04-18T03:53:11.167Z,90.63
2017-04-18T03:53:52.759Z,90.44
2017-04-18T03:54:33.360Z,89.97
2017-04-18T03:55:13.941Z,90.34
2017-04-18T03:55:55.542Z,90.44
2017-04-18T03:56:36.171Z,90.53
2017-04-18T03:57:16.704Z,90.25
2017-04-18T03:57:57.251Z,90.63
2017-04-18T03:58:37.801Z,90.25
2017-04-18T03:59:18.353Z,90.53
2017-04-18T03:59:58.896Z,90.34
2017-04-18T04:00:40.480Z,90.63
2017-04-18T04:01:21.075Z,90.34
2017-04-18T04:02:01.668Z,90.63
2017-04-18T04:02:42.178Z,90.63
2017-04-18T04:03:22.804Z,90.53
2017-04-18T04:04:03.374Z,90.44
2017-04-18T04:04:43.973Z,90.53
2017-04-18T04:05:24.497Z,90.63
2017-04-18T04:06:06.105Z,90.63
2017-04-18T04:06:46.702Z,90.44
2017-04-18T04:07:27.304Z,90.63
2017-04-18T04:08:07.849Z,90.44
2017-04-18T04:08:49.463Z,90.53
2017-04-18T04:09:30.023Z,90.53
2017-04-18T04:10:10.629Z,90.53
2017-04-18T04:10:51.138Z,90.44
2017-04-18T04:11:31.750Z,90.63
2017-04-18T04:12:13.366Z,90.44
2017-04-18T04:12:56.005Z,90.63
2017-04-18T04:13:36.524Z,90.53
2017-04-18T04:14:17.120Z,90.44
2017-04-18T04:14:57.723Z,90.44
2017-04-18T04:15:38.310Z,90.63
2017-04-18T04:16:20.910Z,90.53
2017-04-18T04:17:02.487Z,90.34
2017-04-18T04:17:43.585Z,90.53
2017-04-18T04:18:24.145Z,90.53
2017-04-18T04:19:04.694Z,90.2
2017-04-18T04:19:45.305Z,90.11
2017-04-18T04:20:25.849Z,90.2
2017-04-18T04:21:06.360Z,90.2
2017-04-18T04:21:46.975Z,90.53
2017-04-18T04:22:27.501Z,90.01
2017-04-18T04:23:08.122Z,90.01
2017-04-18T04:23:48.656Z,90.3
2017-04-18T04:24:31.303Z,90.3
2017-04-18T04:25:11.835Z,90.58
2017-04-18T04:25:53.453Z,90.49
2017-04-18T04:26:36.025Z,90.49
2017-04-18T04:27:16.568Z,90.58
2017-04-18T04:27:57.155Z,90.49
2017-04-18T04:28:37.779Z,90.49
2017-04-18T04:29:18.307Z,90.2
2017-04-18T04:29:58.905Z,90.58
2017-04-18T04:30:39.434Z,90.2
2017-04-18T04:31:19.948Z,90.49
2017-04-18T04:32:00.480Z,90.58
2017-04-18T04:32:41.086Z,90.49
2017-04-18T04:33:21.595Z,90.3
2017-04-18T04:34:03.161Z,90.49
2017-04-18T04:34:44.743Z,90.58
2017-04-18T04:35:25.281Z,90.39
2017-04-18T04:36:05.801Z,90.49
2017-04-18T04:36:47.339Z,90.49
2017-04-18T04:37:32.414Z,90.39
2017-04-18T04:38:14.005Z,90.77
2017-04-18T04:38:55.564Z,90.77
2017-04-18T04:39:37.928Z,90.86
2017-04-18T04:40:20.505Z,90.68
2017-04-18T04:41:01.069Z,90.77
2017-04-18T04:41:41.605Z,90.58
2017-04-18T04:42:22.156Z,90.86
2017-04-18T04:43:03.730Z,90.77
2017-04-18T04:43:45.353Z,90.58
2017-04-18T04:44:25.904Z,90.68
2017-04-18T04:45:06.467Z,90.39
2017-04-18T04:45:47.013Z,90.58
2017-04-18T04:46:27.530Z,90.58
2017-04-18T04:47:08.165Z,91.05
2017-04-18T04:47:48.716Z,91.05
2017-04-18T04:48:30.737Z,90.58
2017-04-18T04:49:11.272Z,90.77
2017-04-18T04:49:51.856Z,91.15
2017-04-18T04:50:32.375Z,90.86
2017-04-18T04:51:12.896Z,91.15
2017-04-18T04:51:55.463Z,90.96
2017-04-18T04:52:38.056Z,90.96
2017-04-18T04:53:18.560Z,90.96
2017-04-18T04:53:59.083Z,90.86
2017-04-18T04:54:41.016Z,90.96
2017-04-18T04:55:21.554Z,90.77
2017-04-18T04:56:02.147Z,91.05
2017-04-18T04:56:42.678Z,91.24
2017-04-18T04:57:23.268Z,91.05
2017-04-18T04:58:03.933Z,91.24
2017-04-18T04:58:44.483Z,91.05
2017-04-18T04:59:26.001Z,91.15
2017-04-18T05:00:11.222Z,91.24
2017-04-18T05:00:51.767Z,90.68
2017-04-18T05:01:32.295Z,91.15
2017-04-18T05:02:17.453Z,90.77
2017-04-18T05:02:57.962Z,90.86
2017-04-18T05:03:38.559Z,91.1
2017-04-18T05:04:20.113Z,91.05
2017-04-18T05:05:01.691Z,91.05
2017-04-18T05:05:42.194Z,90.96
2017-04-18T05:06:23.761Z,91.24
2017-04-18T05:07:04.297Z,91.29
2017-04-18T05:07:45.073Z,91.29
2017-04-18T05:08:25.608Z,91.39
2017-04-18T05:09:07.197Z,91.29
2017-04-18T05:09:47.776Z,91.1
2017-04-18T05:10:28.285Z,91.2
2017-04-18T05:11:10.847Z,91.29
2017-04-18T05:11:51.414Z,91.39
2017-04-18T05:12:33.001Z,91.05
2017-04-18T05:13:13.653Z,91.2
2017-04-18T05:13:56.238Z,91.29
2017-04-18T05:14:36.786Z,91.86
2017-04-18T05:15:17.299Z,91.77
2017-04-18T05:15:57.879Z,91.48
2017-04-18T05:16:38.506Z,91.86
2017-04-18T05:17:21.079Z,91.77
2017-04-18T05:18:01.687Z,91.29
2017-04-18T05:18:43.257Z,91.29
2017-04-18T05:19:23.827Z,91.77
2017-04-18T05:20:06.448Z,91.77
2017-04-18T05:20:47.051Z,91.96
2017-04-18T05:21:27.607Z,91.58
2017-04-18T05:22:10.217Z,91.48
2017-04-18T05:22:52.826Z,91.39
2017-04-18T05:23:33.451Z,91.67
2017-04-18T05:24:14.054Z,91.67
2017-04-18T05:24:54.597Z,92.05
2017-04-18T05:25:35.174Z,91.86
2017-04-18T05:26:15.753Z,92.05
2017-04-18T05:26:56.325Z,91.77
2017-04-18T05:27:37.889Z,91.86
2017-04-18T05:28:18.489Z,92.14
2017-04-18T05:28:59.006Z,91.77
2017-04-18T05:29:39.528Z,91.86
2017-04-18T05:30:20.161Z,91.96
2017-04-18T05:31:00.730Z,91.86
2017-04-18T05:31:41.281Z,92.61
2017-04-18T05:32:21.888Z,92.05
2017-04-18T05:33:02.478Z,91.58
2017-04-18T05:33:47.991Z,91.96
2017-04-18T05:34:28.642Z,91.86
2017-04-18T05:35:10.186Z,91.96
2017-04-18T05:35:50.752Z,91.86
2017-04-18T05:36:31.321Z,92.05
2017-04-18T05:37:11.886Z,91.96
2017-04-18T05:37:52.430Z,91.86
2017-04-18T05:38:32.975Z,91.96
2017-04-18T05:39:13.592Z,91.96
2017-04-18T05:39:58.708Z,91.96
2017-04-18T05:40:39.294Z,91.96
2017-04-18T05:41:19.818Z,91.96
2017-04-18T05:42:00.429Z,91.96
2017-04-18T05:42:41.044Z,91.86
2017-04-18T05:43:21.560Z,91.96
2017-04-18T05:44:03.193Z,91.86
2017-04-18T05:44:44.217Z,91.96
2017-04-18T05:45:24.781Z,91.86
2017-04-18T05:46:05.343Z,92.05
2017-04-18T05:46:45.999Z,92
2017-04-18T05:47:28.593Z,92.19
2017-04-18T05:48:09.138Z,92.1
2017-04-18T05:48:49.694Z,92.66
2017-04-18T05:49:30.210Z,92.66
2017-04-18T05:50:10.808Z,92.47
2017-04-18T05:50:52.485Z,92.47
2017-04-18T05:51:33.039Z,92.19
2017-04-18T05:52:13.579Z,92.38
2017-04-18T05:52:54.166Z,92.19
2017-04-18T05:53:34.783Z,92.29
2017-04-18T05:54:17.427Z,92.29
2017-04-18T05:54:58.095Z,92.38
2017-04-18T05:55:38.731Z,92.1
2017-04-18T05:56:19.386Z,92.38
2017-04-18T05:57:00.909Z,92.47
2017-04-18T05:57:41.424Z,92.47
2017-04-18T05:58:22.057Z,92.38
2017-04-18T05:59:03.582Z,92.57
2017-04-18T05:59:44.148Z,92.47
2017-04-18T06:00:24.733Z,92.24
2017-04-18T06:01:05.290Z,92.61
2017-04-18T06:01:46.267Z,92.19
2017-04-18T06:02:26.876Z,92.24
2017-04-18T06:03:07.493Z,92.52
2017-04-18T06:03:48.052Z,92.43
2017-04-18T06:04:28.575Z,92.19
2017-04-18T06:05:09.138Z,92.43
2017-04-18T06:05:49.663Z,92.57
2017-04-18T06:06:30.250Z,92.24
2017-04-18T06:07:10.766Z,92.43
2017-04-18T06:07:51.285Z,92.24
2017-04-18T06:08:31.993Z,92.43
2017-04-18T06:09:12.531Z,92.47
2017-04-18T06:09:53.141Z,92.61
2017-04-18T06:10:33.643Z,92.52
2017-04-18T06:11:14.283Z,92.52
2017-04-18T06:11:54.822Z,92.52
2017-04-18T06:12:35.349Z,92.52
2017-04-18T06:13:16.003Z,92.8
2017-04-18T06:13:56.655Z,92.05
2017-04-18T06:14:37.170Z,92.8
2017-04-18T06:15:17.754Z,92.52
2017-04-18T06:15:58.295Z,92.33
2017-04-18T06:16:38.803Z,92.33
2017-04-18T06:17:19.382Z,92.61
2017-04-18T06:17:59.902Z,92.33
2017-04-18T06:18:40.435Z,92.43
2017-04-18T06:19:20.984Z,92.43
2017-04-18T06:20:01.629Z,92.43
2017-04-18T06:21:59.709Z,92.38
2017-04-18T06:22:40.279Z,92.38
2017-04-18T06:23:20.854Z,92.57
2017-04-18T06:24:01.446Z,92.19
2017-04-18T06:24:42.039Z,91.9
2017-04-18T06:25:22.555Z,92
2017-04-18T06:26:03.195Z,91.9
2017-04-18T06:26:43.772Z,92.19
2017-04-18T06:27:24.364Z,92.47
2017-04-18T06:28:04.961Z,91.62
2017-04-18T06:28:45.568Z,91.62
2017-04-18T06:29:26.170Z,91.62
2017-04-18T06:30:06.778Z,91.62
2017-04-18T06:30:47.325Z,91.33
2017-04-18T06:31:27.886Z,91.43
2017-04-18T06:32:08.399Z,91.43
2017-04-18T06:32:48.992Z,91.81
2017-04-18T06:33:29.492Z,91.62
2017-04-18T06:34:10.074Z,91.43
2017-04-18T06:34:50.708Z,91.14
2017-04-18T06:35:31.258Z,91.14
2017-04-18T06:36:12.117Z,90.95
2017-04-18T06:36:52.666Z,91.43
2017-04-18T06:37:33.251Z,91.33
2017-04-18T06:38:13.952Z,91.43
2017-04-18T06:38:54.538Z,91.24
2017-04-18T06:39:35.144Z,90.86
2017-04-18T06:40:15.750Z,91.05
2017-04-18T06:40:56.260Z,91.05
2017-04-18T06:41:36.909Z,91.05
2017-04-18T06:42:17.460Z,90.86
2017-04-18T06:42:58.021Z,90.86
2017-04-18T06:43:39.082Z,90.58
2017-04-18T06:44:19.769Z,90.58
2017-04-18T06:45:00.381Z,90.77
2017-04-18T06:45:40.932Z,90.86
2017-04-18T06:46:21.460Z,90.77
2017-04-18T06:47:02.090Z,90.86
2017-04-18T06:47:42.690Z,90.95
2017-04-18T06:48:23.302Z,90.95
2017-04-18T06:49:03.911Z,90.86
2017-04-18T06:49:45.461Z,90.77
2017-04-18T06:50:26.068Z,90.77
2017-04-18T06:51:06.671Z,90.67
2017-04-18T06:51:47.194Z,90.58
2017-04-18T06:52:27.710Z,90.48
2017-04-18T06:53:08.287Z,90.29
2017-04-18T06:53:48.943Z,90.48
2017-04-18T06:54:29.465Z,90.39
2017-04-18T06:55:10.084Z,90.29
2017-04-18T06:55:50.672Z,90.81
2017-04-18T06:56:31.186Z,91
2017-04-18T06:57:11.700Z,90.81
2017-04-18T06:57:52.306Z,90.24
2017-04-18T06:58:32.897Z,90.53
2017-04-18T06:59:13.542Z,90.43
2017-04-18T06:59:54.507Z,90.15
2017-04-18T07:00:35.064Z,89.86
2017-04-18T07:01:15.588Z,89.72
2017-04-18T07:01:56.195Z,89.62
2017-04-18T07:02:36.711Z,89.91
2017-04-18T07:03:17.254Z,89.15
2017-04-18T07:03:57.811Z,89.25
2017-04-18T07:04:38.361Z,89.34
2017-04-18T07:05:18.984Z,89.15
2017-04-18T07:05:59.520Z,88.96
2017-04-18T07:06:40.110Z,88.87
2017-04-18T07:07:20.719Z,88.58
2017-04-18T07:08:01.326Z,88.96
2017-04-18T07:08:41.977Z,88.96
2017-04-18T07:09:22.580Z,87.92
2017-04-18T07:10:03.129Z,88.39
2017-04-18T07:10:43.730Z,88.1
2017-04-18T07:11:24.350Z,88.2
2017-04-18T07:12:04.885Z,88.1
2017-04-18T07:12:45.446Z,87.73
2017-04-18T07:13:25.977Z,88.1
2017-04-18T07:14:06.548Z,87.82
2017-04-18T07:14:47.075Z,87.63
2017-04-18T07:15:27.664Z,87.82
2017-04-18T07:16:08.292Z,87.73
2017-04-18T07:16:48.882Z,87.73
2017-04-18T07:17:29.491Z,87.63
2017-04-18T07:18:10.021Z,87.63
2017-04-18T07:18:50.660Z,88.01
2017-04-18T07:19:31.092Z,87.73
2017-04-18T07:20:11.728Z,87.82
2017-04-18T07:20:52.396Z,87.73
2017-04-18T07:21:32.983Z,87.63
2017-04-18T07:22:13.637Z,87.73
2017-04-18T07:22:54.176Z,87.92
2017-04-18T07:23:34.739Z,87.82
2017-04-18T07:24:15.389Z,88.01
2017-04-18T07:24:55.937Z,88.01
2017-04-18T07:25:37.509Z,87.63
2017-04-18T07:26:18.070Z,87.54
2017-04-18T07:26:58.616Z,87.21
2017-04-18T07:27:39.192Z,87.06
2017-04-18T07:28:19.771Z,87.21
2017-04-18T07:29:00.363Z,87.02
2017-04-18T07:29:40.901Z,86.93
2017-04-18T07:30:21.495Z,86.87
2017-04-18T07:31:02.081Z,86.83
2017-04-18T07:31:42.680Z,86.78
2017-04-18T07:32:23.267Z,86.78
2017-04-18T07:33:03.795Z,87.16
2017-04-18T07:33:44.391Z,86.97
2017-04-18T07:34:24.987Z,86.59
2017-04-18T07:35:05.493Z,86.68
2017-04-18T07:35:46.105Z,86.02
2017-04-18T07:36:26.762Z,85.74
2017-04-18T07:37:07.375Z,85.93
2017-04-18T07:37:47.893Z,86.11
2017-04-18T07:38:28.502Z,86.11
2017-04-18T07:39:09.026Z,86.21
2017-04-18T07:39:49.616Z,86.21
2017-04-18T07:40:30.181Z,86.02
2017-04-18T07:41:10.913Z,85.45
2017-04-18T07:41:51.510Z,85.74
2017-04-18T07:42:32.086Z,85.45
2017-04-18T07:43:12.618Z,85.55
2017-04-18T07:43:53.137Z,85.45
2017-04-18T07:44:33.741Z,85.64
2017-04-18T07:45:14.279Z,85.26
2017-04-18T07:45:54.862Z,84.98
2017-04-18T07:46:35.378Z,85.26
2017-04-18T07:47:16.035Z,85.17
2017-04-18T07:47:56.618Z,84.78
2017-04-18T07:48:37.155Z,84.88
2017-04-18T07:49:17.720Z,85.17
2017-04-18T07:49:58.267Z,85.17
2017-04-18T07:50:38.862Z,84.78
2017-04-18T07:51:20.499Z,84.12
2017-04-18T07:52:01.105Z,84.88
2017-04-18T07:52:41.686Z,84.12
2017-04-18T07:53:22.267Z,84.41
2017-04-18T07:54:02.893Z,84.12
2017-04-18T07:54:43.493Z,84.12
2017-04-18T07:55:24.078Z,84.22
2017-04-18T07:56:04.631Z,83.65
2017-04-18T07:56:45.204Z,83.27
2017-04-18T07:57:25.812Z,83.36
2017-04-18T07:58:06.451Z,83.17
2017-04-18T07:58:47.028Z,83.17
2017-04-18T07:59:27.564Z,83.46
2017-04-18T08:00:08.145Z,83.08
2017-04-18T08:00:48.674Z,83.08
2017-04-18T08:01:29.310Z,83.17
2017-04-18T08:02:09.908Z,83.08
2017-04-18T08:02:50.448Z,82.7
2017-04-18T08:03:32.213Z,82.7
2017-04-18T08:04:12.840Z,82.13
2017-04-18T08:04:53.426Z,82.36
2017-04-18T08:05:33.947Z,82.23
2017-04-18T08:06:14.479Z,82.42
2017-04-18T08:06:54.977Z,82.36
2017-04-18T08:07:35.563Z,82.27
2017-04-18T08:08:16.097Z,82.46
2017-04-18T08:08:56.898Z,82.65
2017-04-18T08:09:37.451Z,82.65
2017-04-18T08:10:18.140Z,82.65
2017-04-18T08:10:58.667Z,82.08
2017-04-18T08:11:39.257Z,82.36
2017-04-18T08:12:20.782Z,82.27
2017-04-18T08:13:01.303Z,81.98
2017-04-18T08:13:41.822Z,82.08
2017-04-18T08:14:23.391Z,81.74
2017-04-18T08:15:03.950Z,81.55
2017-04-18T08:15:44.560Z,81.07
2017-04-18T08:16:25.149Z,80.6
2017-04-18T08:17:05.694Z,80.6
2017-04-18T08:17:46.243Z,79.74
2017-04-18T08:18:26.911Z,80.03
2017-04-18T08:19:07.557Z,79.65
2017-04-18T08:19:48.102Z,79.55
2017-04-18T08:20:28.617Z,79.17
2017-04-18T08:21:09.132Z,78.8
2017-04-18T08:21:49.684Z,78.83
2017-04-18T08:22:30.210Z,78.27
2017-04-18T08:23:10.751Z,78.42
2017-04-18T08:23:51.287Z,78.13
2017-04-18T08:24:31.784Z,77.22
2017-04-18T08:25:12.415Z,77.37
2017-04-18T08:25:53.015Z,76.99
2017-04-18T08:26:33.517Z,77.41
2017-04-18T08:27:14.046Z,76.9
2017-04-18T08:27:54.620Z,76.8
2017-04-18T08:28:35.158Z,77.31
2017-04-18T08:29:15.711Z,76.99
2017-04-18T08:29:56.313Z,77.03
2017-04-18T08:30:36.881Z,76.99
2017-04-18T08:31:17.510Z,77.37
2017-04-18T08:31:58.022Z,77.56
2017-04-18T08:32:38.580Z,77.75
2017-04-18T08:33:19.113Z,77.56
2017-04-18T08:33:59.632Z,77.37
2017-04-18T08:34:40.277Z,77.56
2017-04-18T08:35:20.883Z,77.18
2017-04-18T08:36:01.420Z,77.66
2017-04-18T08:36:42.016Z,77.18
2017-04-18T08:37:22.636Z,76.8
2017-04-18T08:38:03.187Z,76.61
2017-04-18T08:38:43.701Z,76.8
2017-04-18T08:39:24.248Z,76.71
2017-04-18T08:40:04.884Z,76.8
2017-04-18T08:40:45.468Z,76.9
2017-04-18T08:41:26.026Z,77.09
2017-04-18T08:42:06.581Z,77.28
2017-04-18T08:42:47.257Z,76.42
2017-04-18T08:43:27.894Z,76.52
2017-04-18T08:44:08.537Z,76.8
2017-04-18T08:44:49.099Z,76.32
2017-04-18T08:45:29.749Z,76.23
2017-04-18T08:46:10.300Z,76.52
2017-04-18T08:46:50.942Z,76.52
2017-04-18T08:47:31.504Z,76.61
2017-04-18T08:48:12.152Z,76.32
2017-04-18T08:48:52.798Z,76.32
2017-04-18T08:49:33.303Z,76.46
2017-04-18T08:50:13.820Z,76.46
2017-04-18T08:50:54.405Z,76.18
2017-04-18T08:51:34.960Z,76.08
2017-04-18T08:52:15.614Z,76.08
2017-04-18T08:52:56.147Z,76.37
2017-04-18T08:53:36.704Z,76.08
2017-04-18T08:54:17.246Z,75.7
2017-04-18T08:54:57.809Z,76.27
2017-04-18T08:55:38.366Z,75.79
2017-04-18T08:56:19.000Z,76.37
2017-04-18T08:56:59.593Z,76.27
2017-04-18T08:57:40.150Z,76.42
2017-04-18T08:58:20.667Z,76.9
2017-04-18T08:59:01.218Z,76.32
2017-04-18T08:59:41.740Z,76.52
2017-04-18T09:00:22.251Z,76.61
2017-04-18T09:01:02.899Z,76.8
2017-04-18T09:01:43.484Z,76.52
2017-04-18T09:02:24.101Z,76.42
2017-04-18T09:03:04.606Z,76.52
2017-04-18T09:03:45.209Z,76.9
2017-04-18T09:04:25.703Z,76.71
2017-04-18T09:05:06.356Z,76.61
2017-04-18T09:05:46.890Z,76.61
2017-04-18T09:06:27.502Z,76.61
2017-04-18T09:07:08.218Z,77.37
2017-04-18T09:07:48.814Z,76.52
2017-04-18T09:08:29.472Z,77.18
2017-04-18T09:09:09.984Z,76.99
2017-04-18T09:09:50.615Z,77.75
2017-04-18T09:10:31.162Z,77.09
2017-04-18T09:11:11.697Z,76.99
2017-04-18T09:11:52.300Z,77.56
2017-04-18T09:12:32.812Z,77.75
2017-04-18T09:13:13.379Z,76.99
2017-04-18T09:13:54.021Z,77.37
2017-04-18T09:14:34.529Z,76.61
2017-04-18T09:15:15.113Z,76.61
2017-04-18T09:15:55.729Z,76.32
2017-04-18T09:16:36.319Z,76.42
2017-04-18T09:17:16.856Z,76.75
2017-04-18T09:17:57.406Z,76.56
2017-04-18T09:18:37.948Z,76.56
2017-04-18T09:19:18.483Z,75.99
2017-04-18T09:19:59.215Z,75.99
2017-04-18T09:20:39.843Z,75.89
2017-04-18T09:21:20.381Z,76.08
2017-04-18T09:22:01.060Z,76.08
2017-04-18T09:22:41.614Z,75.89
2017-04-18T09:23:22.134Z,76.08
2017-04-18T09:24:02.649Z,75.99
2017-04-18T09:24:43.366Z,75.42
2017-04-18T09:25:23.892Z,75.42
2017-04-18T09:26:04.579Z,75.13
2017-04-18T09:26:45.140Z,75.42
2017-04-18T09:27:25.840Z,75.79
2017-04-18T09:28:06.818Z,75.51
2017-04-18T09:28:47.345Z,75.7
2017-04-18T09:29:28.022Z,75.42
2017-04-18T09:30:08.693Z,75.42
2017-04-18T09:30:49.304Z,74.75
2017-04-18T09:31:29.822Z,74.75
2017-04-18T09:32:10.344Z,74.94
2017-04-18T09:32:50.852Z,74.85
2017-04-18T09:33:31.538Z,75.23
2017-04-18T09:34:13.183Z,75.38
2017-04-18T09:34:53.725Z,75
2017-04-18T09:35:34.385Z,75.47
2017-04-18T09:36:15.027Z,75.38
2017-04-18T09:36:55.537Z,75.38
2017-04-18T09:37:36.140Z,75.47
2017-04-18T09:38:16.803Z,75.38
2017-04-18T09:38:57.544Z,75.28
2017-04-18T09:39:38.204Z,75.38
2017-04-18T09:40:18.871Z,75.67
2017-04-18T09:40:59.416Z,75.47
2017-04-18T09:41:40.066Z,75.95
2017-04-18T09:42:20.747Z,76.14
2017-04-18T09:43:01.430Z,76.04
2017-04-18T09:43:42.114Z,76.04
2017-04-18T09:44:22.829Z,75.95
2017-04-18T09:45:03.467Z,76.42
2017-04-18T09:45:44.111Z,76.32
2017-04-18T09:46:24.678Z,76.9
2017-04-18T09:47:05.383Z,77.37
2017-04-18T09:47:45.899Z,77.18
2017-04-18T09:48:26.576Z,77.18
2017-04-18T09:49:07.194Z,77.18
2017-04-18T09:49:48.810Z,77.37
2017-04-18T09:50:29.336Z,77.66
2017-04-18T09:51:10.044Z,77.47
2017-04-18T09:51:50.725Z,77.47
2017-04-18T09:52:31.362Z,77.47
2017-04-18T09:53:12.020Z,77.66
2017-04-18T09:53:52.667Z,77.66
2017-04-18T09:54:33.589Z,77.75
2017-04-18T09:55:14.264Z,77.84
2017-04-18T09:55:54.945Z,77.94
2017-04-18T09:56:35.583Z,77.66
2017-04-18T09:57:16.090Z,77.84
2017-04-18T09:57:57.062Z,77.47
2017-04-18T09:58:37.571Z,77.09
2017-04-18T09:59:18.263Z,76.93
2017-04-18T09:59:58.766Z,77.12
2017-04-18T10:00:39.471Z,76.56
2017-04-18T10:01:20.107Z,76.46
2017-04-18T10:02:00.784Z,76.65
2017-04-18T10:02:41.462Z,76.65
2017-04-18T10:03:22.120Z,76.56
2017-04-18T10:04:02.772Z,76.88
2017-04-18T10:04:43.427Z,76.12
2017-04-18T10:05:23.934Z,76.03
2017-04-18T10:06:04.475Z,76.16
2017-04-18T10:06:45.160Z,75.78
2017-04-18T10:07:25.848Z,75.3
2017-04-18T10:08:06.539Z,75.3
2017-04-18T10:08:47.048Z,75.3
2017-04-18T10:09:27.767Z,74.98
2017-04-18T10:10:08.449Z,75.21
2017-04-18T10:10:49.144Z,74.6
2017-04-18T10:11:29.657Z,74.69
2017-04-18T10:12:10.258Z,73.93
2017-04-18T10:12:50.916Z,74.51
2017-04-18T10:13:31.566Z,74.6
2017-04-18T10:14:12.214Z,73.93
2017-04-18T10:14:52.979Z,73.74
2017-04-18T10:15:33.636Z,72.89
2017-04-18T10:16:14.274Z,72.6
2017-04-18T10:16:54.943Z,71.84
2017-04-18T10:17:35.644Z,72.13
2017-04-18T10:18:16.248Z,72.13
2017-04-18T10:18:56.769Z,71.94
2017-04-18T10:19:37.457Z,71.37
2017-04-18T10:20:18.145Z,71.46
2017-04-18T10:20:58.731Z,70.79
2017-04-18T10:21:39.246Z,71.59
2017-04-18T10:22:19.854Z,71.31
2017-04-18T10:23:00.506Z,70.99
2017-04-18T10:23:41.153Z,70.7
2017-04-18T10:24:21.805Z,70.7
2017-04-18T10:25:02.475Z,71.46
2017-04-18T10:25:43.115Z,70.79
2017-04-18T10:26:23.817Z,70.61
2017-04-18T10:27:04.455Z,70.99
2017-04-18T10:27:45.102Z,70.79
2017-04-18T10:28:25.738Z,70.99
2017-04-18T10:29:06.388Z,71.31
2017-04-18T10:29:47.058Z,70.64
2017-04-18T10:30:27.699Z,70.93
2017-04-18T10:31:08.339Z,70.54
2017-04-18T10:31:48.993Z,70.26
2017-04-18T10:32:29.658Z,69.69
2017-04-18T10:33:10.301Z,69.69
2017-04-18T10:33:50.950Z,69.69
2017-04-18T10:34:31.611Z,69.88
2017-04-18T10:35:12.259Z,69.85
2017-04-18T10:35:52.913Z,70.51
2017-04-18T10:36:33.563Z,70.23
2017-04-18T10:37:14.240Z,70.13
2017-04-18T10:37:54.866Z,70.23
2017-04-18T10:38:35.420Z,70.51
2017-04-18T10:39:16.075Z,70.61
2017-04-18T10:39:56.720Z,70.13
2017-04-18T10:40:37.366Z,69.75
2017-04-18T10:41:18.037Z,70.13
2017-04-18T10:41:58.655Z,69.85
2017-04-18T10:42:39.243Z,69.94
2017-04-18T10:43:19.756Z,70.04
2017-04-18T10:44:00.394Z,70.23
2017-04-18T10:44:40.922Z,70.42
2017-04-18T10:45:21.525Z,70.51
2017-04-18T10:46:02.213Z,70.32
2017-04-18T10:46:42.802Z,70.51
2017-04-18T10:47:23.349Z,70.51
2017-04-18T10:48:04.006Z,70.61
2017-04-18T10:48:44.624Z,70.42
2017-04-18T10:49:25.580Z,70.07
2017-04-18T10:50:06.170Z,69.79
2017-04-18T10:50:46.799Z,69.79
2017-04-18T10:51:27.341Z,69.79
2017-04-18T10:52:07.905Z,69.6
2017-04-18T10:52:48.406Z,69.88
2017-04-18T10:53:28.996Z,69.12
2017-04-18T10:54:09.538Z,69.12
2017-04-18T10:54:50.053Z,69.02
2017-04-18T10:55:30.646Z,68.65
2017-04-18T10:56:11.293Z,68.65
2017-04-18T10:56:51.858Z,68.74
2017-04-18T10:57:32.402Z,68.65
2017-04-18T10:58:13.004Z,69.09
2017-04-18T10:58:53.605Z,68.61
2017-04-18T10:59:34.116Z,68.13
2017-04-18T11:00:14.712Z,68.61
2017-04-18T11:00:55.257Z,68.17
2017-04-18T11:01:35.806Z,68.74
2017-04-18T11:02:16.425Z,68.17
2017-04-18T11:02:57.016Z,68.17
2017-04-18T11:03:37.561Z,68.65
2017-04-18T11:04:18.128Z,68.27
2017-04-18T11:04:59.738Z,67.69
2017-04-18T11:05:40.339Z,67.88
2017-04-18T11:06:22.937Z,68.36
2017-04-18T11:07:03.523Z,68.27
2017-04-18T11:07:44.148Z,67.69
2017-04-18T11:08:24.706Z,67.32
2017-04-18T11:09:05.248Z,67.03